sensor_id;sensor_type;location;lat;lon;timestamp;P1;durP1;ratioP1;P2;durP2;ratioP2
19221;SDS011;9745;50.828;4.378;2022-08-19T01:25:49;44.93;;;31.77;;
19221;SDS011;9745;50.828;4.378;2022-08-19T01:28:20;48.17;;;30.93;;
19221;SDS011;9745;50.828;4.378;2022-08-19T01:30:46;46.50;;;29.73;;
19221;SDS011;9745;50.828;4.378;2022-08-19T01:33:13;44.10;;;30.40;;
19221;SDS011;9745;50.828;4.378;2022-08-19T01:35:39;41.60;;;29.30;;
19221;SDS011;9745;50.828;4.378;2022-08-19T01:38:07;45.00;;;29.53;;
19221;SDS011;9745;50.828;4.378;2022-08-19T01:40:36;43.93;;;28.93;;
19221;SDS011;9745;50.828;4.378;2022-08-19T01:43:03;41.03;;;27.93;;
19221;SDS011;9745;50.828;4.378;2022-08-19T01:45:31;41.67;;;28.37;;
19221;SDS011;9745;50.828;4.378;2022-08-19T11:52:17;11.53;;;6.30;;
19221;SDS011;9745;50.828;4.378;2022-08-19T11:54:43;8.67;;;5.97;;
19221;SDS011;9745;50.828;4.378;2022-08-19T11:57:10;8.97;;;5.63;;
19221;SDS011;9745;50.828;4.378;2022-08-19T11:59:37;9.23;;;5.50;;
19221;SDS011;9745;50.828;4.378;2022-08-19T12:02:03;5.90;;;5.30;;
19221;SDS011;9745;50.828;4.378;2022-08-19T12:04:29;10.13;;;4.90;;
19221;SDS011;9745;50.828;4.378;2022-08-19T12:06:58;7.77;;;4.90;;
19221;SDS011;9745;50.828;4.378;2022-08-19T12:09:24;8.33;;;4.13;;
19221;SDS011;9745;50.828;4.378;2022-08-19T12:11:50;4.90;;;3.83;;
19221;SDS011;9745;50.828;4.378;2022-08-19T12:14:17;6.00;;;4.03;;
19221;SDS011;9745;50.828;4.378;2022-08-19T12:16:44;4.63;;;3.70;;
19221;SDS011;9745;50.828;4.378;2022-08-19T12:19:11;5.33;;;3.90;;
19221;SDS011;9745;50.828;4.378;2022-08-19T12:21:37;5.20;;;3.47;;
19221;SDS011;9745;50.828;4.378;2022-08-19T12:24:04;9.87;;;4.00;;
19221;SDS011;9745;50.828;4.378;2022-08-19T12:26:30;5.13;;;3.10;;
19221;SDS011;9745;50.828;4.378;2022-08-19T12:28:56;4.40;;;2.97;;
19221;SDS011;9745;50.828;4.378;2022-08-19T12:31:24;5.93;;;2.90;;
19221;SDS011;9745;50.828;4.378;2022-08-19T12:33:50;5.70;;;3.00;;
19221;SDS011;9745;50.828;4.378;2022-08-19T12:36:17;4.37;;;2.53;;
19221;SDS011;9745;50.828;4.378;2022-08-19T12:38:43;7.17;;;2.73;;
19221;SDS011;9745;50.828;4.378;2022-08-19T12:41:11;2.97;;;2.20;;
19221;SDS011;9745;50.828;4.378;2022-08-19T12:43:37;5.33;;;2.27;;
19221;SDS011;9745;50.828;4.378;2022-08-19T12:46:04;1.83;;;1.73;;
19221;SDS011;9745;50.828;4.378;2022-08-19T12:48:31;2.30;;;1.83;;
19221;SDS011;9745;50.828;4.378;2022-08-19T12:50:57;16.07;;;2.80;;
19221;SDS011;9745;50.828;4.378;2022-08-19T12:53:23;5.43;;;2.00;;
19221;SDS011;9745;50.828;4.378;2022-08-19T12:55:56;7.63;;;2.03;;
19221;SDS011;9745;50.828;4.378;2022-08-19T12:58:22;5.87;;;2.00;;
19221;SDS011;9745;50.828;4.378;2022-08-19T13:00:48;4.60;;;1.90;;
19221;SDS011;9745;50.828;4.378;2022-08-19T13:03:14;5.93;;;1.90;;
19221;SDS011;9745;50.828;4.378;2022-08-19T13:05:40;8.10;;;2.00;;
19221;SDS011;9745;50.828;4.378;2022-08-19T13:08:07;6.53;;;1.93;;
19221;SDS011;9745;50.828;4.378;2022-08-19T13:10:33;4.53;;;1.90;;
19221;SDS011;9745;50.828;4.378;2022-08-19T13:13:00;2.73;;;1.60;;
19221;SDS011;9745;50.828;4.378;2022-08-19T13:15:27;7.00;;;2.10;;
19221;SDS011;9745;50.828;4.378;2022-08-19T13:17:53;3.53;;;1.70;;
19221;SDS011;9745;50.828;4.378;2022-08-19T13:20:20;3.33;;;1.40;;
19221;SDS011;9745;50.828;4.378;2022-08-19T13:22:47;4.90;;;1.70;;
19221;SDS011;9745;50.828;4.378;2022-08-19T13:25:14;7.03;;;1.77;;
19221;SDS011;9745;50.828;4.378;2022-08-19T13:27:42;2.93;;;1.60;;
19221;SDS011;9745;50.828;4.378;2022-08-19T13:30:09;3.23;;;1.80;;
19221;SDS011;9745;50.828;4.378;2022-08-19T13:32:54;3.93;;;1.67;;
19221;SDS011;9745;50.828;4.378;2022-08-19T13:35:49;1.90;;;1.20;;
19221;SDS011;9745;50.828;4.378;2022-08-19T13:38:20;1.77;;;1.50;;
19221;SDS011;9745;50.828;4.378;2022-08-19T13:40:46;4.13;;;1.40;;
19221;SDS011;9745;50.828;4.378;2022-08-19T13:43:14;4.83;;;1.37;;
19221;SDS011;9745;50.828;4.378;2022-08-19T13:45:40;2.50;;;1.20;;
19221;SDS011;9745;50.828;4.378;2022-08-19T13:48:06;2.97;;;1.33;;
19221;SDS011;9745;50.828;4.378;2022-08-19T13:50:34;3.30;;;1.30;;
19221;SDS011;9745;50.828;4.378;2022-08-19T13:53:00;3.07;;;1.43;;
19221;SDS011;9745;50.828;4.378;2022-08-19T13:55:27;2.97;;;1.40;;
19221;SDS011;9745;50.828;4.378;2022-08-19T13:57:57;2.90;;;1.50;;
19221;SDS011;9745;50.828;4.378;2022-08-19T14:00:24;3.07;;;1.47;;
19221;SDS011;9745;50.828;4.378;2022-08-19T14:02:52;9.20;;;1.40;;
19221;SDS011;9745;50.828;4.378;2022-08-19T14:05:18;7.10;;;1.00;;
19221;SDS011;9745;50.828;4.378;2022-08-19T14:07:44;2.00;;;1.13;;
19221;SDS011;9745;50.828;4.378;2022-08-19T14:10:11;3.27;;;1.40;;
19221;SDS011;9745;50.828;4.378;2022-08-19T14:12:37;2.73;;;1.57;;
19221;SDS011;9745;50.828;4.378;2022-08-19T14:15:04;3.37;;;1.17;;
19221;SDS011;9745;50.828;4.378;2022-08-19T14:17:31;4.00;;;1.40;;
19221;SDS011;9745;50.828;4.378;2022-08-19T14:20:04;4.23;;;1.47;;
19221;SDS011;9745;50.828;4.378;2022-08-19T14:22:33;4.50;;;1.50;;
19221;SDS011;9745;50.828;4.378;2022-08-19T14:24:59;2.93;;;1.60;;
19221;SDS011;9745;50.828;4.378;2022-08-19T14:27:25;3.70;;;1.50;;
19221;SDS011;9745;50.828;4.378;2022-08-19T14:29:52;6.67;;;1.40;;
19221;SDS011;9745;50.828;4.378;2022-08-19T14:32:18;2.57;;;1.33;;
19221;SDS011;9745;50.828;4.378;2022-08-19T14:34:44;1.87;;;1.30;;
19221;SDS011;9745;50.828;4.378;2022-08-19T14:37:11;5.00;;;1.07;;
19221;SDS011;9745;50.828;4.378;2022-08-19T14:39:39;1.60;;;0.97;;
19221;SDS011;9745;50.828;4.378;2022-08-19T14:42:06;2.77;;;1.37;;
19221;SDS011;9745;50.828;4.378;2022-08-19T14:44:33;2.03;;;1.50;;
19221;SDS011;9745;50.828;4.378;2022-08-19T14:46:59;2.00;;;1.33;;
19221;SDS011;9745;50.828;4.378;2022-08-19T14:49:25;4.70;;;1.30;;
19221;SDS011;9745;50.828;4.378;2022-08-19T14:51:51;3.83;;;1.20;;
19221;SDS011;9745;50.828;4.378;2022-08-19T14:54:17;2.60;;;1.00;;
19221;SDS011;9745;50.828;4.378;2022-08-19T14:56:43;4.63;;;1.30;;
19221;SDS011;9745;50.828;4.378;2022-08-19T14:59:10;3.07;;;1.30;;
19221;SDS011;9745;50.828;4.378;2022-08-19T15:01:36;2.33;;;1.00;;
19221;SDS011;9745;50.828;4.378;2022-08-19T15:04:02;3.20;;;1.37;;
19221;SDS011;9745;50.828;4.378;2022-08-19T15:06:28;1.20;;;0.90;;
19221;SDS011;9745;50.828;4.378;2022-08-19T15:08:54;1.57;;;0.70;;
19221;SDS011;9745;50.828;4.378;2022-08-19T15:11:23;2.13;;;1.00;;
19221;SDS011;9745;50.828;4.378;2022-08-19T15:13:50;3.43;;;1.00;;
19221;SDS011;9745;50.828;4.378;2022-08-19T15:16:16;2.60;;;1.10;;
19221;SDS011;9745;50.828;4.378;2022-08-19T15:18:43;3.57;;;0.90;;
19221;SDS011;9745;50.828;4.378;2022-08-19T15:21:10;2.63;;;0.90;;
19221;SDS011;9745;50.828;4.378;2022-08-19T15:23:38;5.40;;;1.17;;
19221;SDS011;9745;50.828;4.378;2022-08-19T15:26:04;1.90;;;0.80;;
19221;SDS011;9745;50.828;4.378;2022-08-19T15:28:33;1.87;;;1.17;;
19221;SDS011;9745;50.828;4.378;2022-08-19T15:30:59;5.33;;;1.20;;
19221;SDS011;9745;50.828;4.378;2022-08-19T15:33:26;1.00;;;0.83;;
19221;SDS011;9745;50.828;4.378;2022-08-19T15:35:52;3.70;;;1.50;;
19221;SDS011;9745;50.828;4.378;2022-08-19T15:38:18;3.40;;;1.23;;
19221;SDS011;9745;50.828;4.378;2022-08-19T15:40:46;3.80;;;1.47;;
19221;SDS011;9745;50.828;4.378;2022-08-19T15:43:13;6.40;;;1.27;;
19221;SDS011;9745;50.828;4.378;2022-08-19T15:45:39;3.60;;;1.50;;
19221;SDS011;9745;50.828;4.378;2022-08-19T15:48:06;1.70;;;1.23;;
19221;SDS011;9745;50.828;4.378;2022-08-19T15:50:32;3.17;;;1.27;;
19221;SDS011;9745;50.828;4.378;2022-08-19T15:53:04;2.77;;;1.20;;
19221;SDS011;9745;50.828;4.378;2022-08-19T15:55:32;2.40;;;0.93;;
19221;SDS011;9745;50.828;4.378;2022-08-19T15:57:59;2.47;;;1.03;;
19221;SDS011;9745;50.828;4.378;2022-08-19T16:00:44;3.20;;;1.17;;
19221;SDS011;9745;50.828;4.378;2022-08-19T16:03:28;2.20;;;1.00;;
19221;SDS011;9745;50.828;4.378;2022-08-19T16:06:13;3.20;;;1.00;;
19221;SDS011;9745;50.828;4.378;2022-08-19T16:08:55;4.00;;;1.20;;
19221;SDS011;9745;50.828;4.378;2022-08-19T16:11:23;1.90;;;1.30;;
19221;SDS011;9745;50.828;4.378;2022-08-19T16:13:50;2.63;;;1.60;;
19221;SDS011;9745;50.828;4.378;2022-08-19T16:16:18;3.73;;;1.40;;
19221;SDS011;9745;50.828;4.378;2022-08-19T16:18:44;3.13;;;1.63;;
19221;SDS011;9745;50.828;4.378;2022-08-19T16:21:12;3.70;;;1.80;;
19221;SDS011;9745;50.828;4.378;2022-08-19T16:23:41;3.67;;;1.80;;
19221;SDS011;9745;50.828;4.378;2022-08-19T16:26:07;2.63;;;1.93;;
19221;SDS011;9745;50.828;4.378;2022-08-19T16:28:33;3.40;;;1.83;;
19221;SDS011;9745;50.828;4.378;2022-08-19T16:30:59;3.27;;;2.00;;
19221;SDS011;9745;50.828;4.378;2022-08-19T16:33:26;4.30;;;2.07;;
19221;SDS011;9745;50.828;4.378;2022-08-19T16:35:52;4.43;;;2.10;;
19221;SDS011;9745;50.828;4.378;2022-08-19T16:38:18;3.47;;;2.30;;
19221;SDS011;9745;50.828;4.378;2022-08-19T16:40:45;4.53;;;2.50;;
19221;SDS011;9745;50.828;4.378;2022-08-19T16:43:13;4.10;;;2.50;;
19221;SDS011;9745;50.828;4.378;2022-08-19T16:45:39;5.87;;;3.10;;
19221;SDS011;9745;50.828;4.378;2022-08-19T16:48:05;5.83;;;3.10;;
19221;SDS011;9745;50.828;4.378;2022-08-19T16:50:31;6.17;;;3.07;;
19221;SDS011;9745;50.828;4.378;2022-08-19T16:52:58;4.30;;;2.67;;
19221;SDS011;9745;50.828;4.378;2022-08-19T16:55:24;4.63;;;2.73;;
19221;SDS011;9745;50.828;4.378;2022-08-19T16:57:52;3.73;;;2.77;;
19221;SDS011;9745;50.828;4.378;2022-08-19T17:00:18;4.73;;;2.60;;
19221;SDS011;9745;50.828;4.378;2022-08-19T17:02:44;5.60;;;3.10;;
19221;SDS011;9745;50.828;4.378;2022-08-19T17:05:10;4.67;;;2.60;;
19221;SDS011;9745;50.828;4.378;2022-08-19T17:07:36;3.37;;;2.70;;
19221;SDS011;9745;50.828;4.378;2022-08-19T17:10:03;6.30;;;3.20;;
19221;SDS011;9745;50.828;4.378;2022-08-19T17:12:29;4.03;;;2.77;;
19221;SDS011;9745;50.828;4.378;2022-08-19T17:14:55;5.13;;;3.03;;
19221;SDS011;9745;50.828;4.378;2022-08-19T17:17:22;5.37;;;3.10;;
19221;SDS011;9745;50.828;4.378;2022-08-19T17:19:48;5.27;;;2.97;;
19221;SDS011;9745;50.828;4.378;2022-08-19T17:22:14;3.93;;;2.60;;
19221;SDS011;9745;50.828;4.378;2022-08-19T17:24:40;7.87;;;2.90;;
19221;SDS011;9745;50.828;4.378;2022-08-19T17:27:06;6.77;;;3.20;;
19221;SDS011;9745;50.828;4.378;2022-08-19T17:29:33;5.80;;;3.30;;
19221;SDS011;9745;50.828;4.378;2022-08-19T17:31:59;9.67;;;4.50;;
19221;SDS011;9745;50.828;4.378;2022-08-19T17:34:25;11.87;;;4.47;;
19221;SDS011;9745;50.828;4.378;2022-08-19T17:36:52;7.50;;;3.50;;
19221;SDS011;9745;50.828;4.378;2022-08-19T17:39:20;7.37;;;3.63;;
19221;SDS011;9745;50.828;4.378;2022-08-19T17:41:46;6.83;;;3.90;;
19221;SDS011;9745;50.828;4.378;2022-08-19T17:44:13;5.20;;;3.50;;
19221;SDS011;9745;50.828;4.378;2022-08-19T17:46:40;5.67;;;3.80;;
19221;SDS011;9745;50.828;4.378;2022-08-19T17:49:06;6.07;;;3.87;;
19221;SDS011;9745;50.828;4.378;2022-08-19T17:53:59;7.17;;;3.90;;
19221;SDS011;9745;50.828;4.378;2022-08-19T17:56:25;7.20;;;3.60;;
19221;SDS011;9745;50.828;4.378;2022-08-19T17:58:52;4.17;;;3.60;;
19221;SDS011;9745;50.828;4.378;2022-08-19T18:01:19;6.60;;;3.90;;
19221;SDS011;9745;50.828;4.378;2022-08-19T18:03:45;8.43;;;4.30;;
19221;SDS011;9745;50.828;4.378;2022-08-19T18:06:12;5.27;;;4.03;;
19221;SDS011;9745;50.828;4.378;2022-08-19T18:08:39;5.43;;;3.70;;
19221;SDS011;9745;50.828;4.378;2022-08-19T18:11:06;6.73;;;3.77;;
19221;SDS011;9745;50.828;4.378;2022-08-19T18:13:33;5.87;;;3.27;;
19221;SDS011;9745;50.828;4.378;2022-08-19T18:15:59;5.37;;;3.67;;
19221;SDS011;9745;50.828;4.378;2022-08-19T18:18:25;5.87;;;3.07;;
19221;SDS011;9745;50.828;4.378;2022-08-19T18:20:54;5.87;;;3.77;;
19221;SDS011;9745;50.828;4.378;2022-08-19T18:23:21;8.03;;;3.77;;
19221;SDS011;9745;50.828;4.378;2022-08-19T18:25:47;6.77;;;3.40;;
19221;SDS011;9745;50.828;4.378;2022-08-19T18:28:13;5.57;;;3.40;;
19221;SDS011;9745;50.828;4.378;2022-08-19T18:30:39;5.27;;;3.20;;
19221;SDS011;9745;50.828;4.378;2022-08-19T18:33:07;6.40;;;3.10;;
19221;SDS011;9745;50.828;4.378;2022-08-19T18:35:39;4.63;;;3.13;;
19221;SDS011;9745;50.828;4.378;2022-08-19T18:38:09;6.20;;;3.90;;
19221;SDS011;9745;50.828;4.378;2022-08-19T18:40:54;7.80;;;3.50;;
19221;SDS011;9745;50.828;4.378;2022-08-19T18:43:39;5.50;;;3.20;;
19221;SDS011;9745;50.828;4.378;2022-08-19T18:46:23;5.43;;;3.37;;
19221;SDS011;9745;50.828;4.378;2022-08-19T18:49:12;6.40;;;3.83;;
19221;SDS011;9745;50.828;4.378;2022-08-19T18:51:38;5.07;;;3.53;;
19221;SDS011;9745;50.828;4.378;2022-08-19T18:54:04;7.13;;;3.70;;
19221;SDS011;9745;50.828;4.378;2022-08-19T18:56:30;7.10;;;3.70;;
19221;SDS011;9745;50.828;4.378;2022-08-19T18:58:57;6.30;;;4.23;;
19221;SDS011;9745;50.828;4.378;2022-08-19T19:01:31;8.33;;;3.77;;
19221;SDS011;9745;50.828;4.378;2022-08-19T19:03:58;6.33;;;3.57;;
19221;SDS011;9745;50.828;4.378;2022-08-19T19:06:27;8.60;;;3.90;;
19221;SDS011;9745;50.828;4.378;2022-08-19T19:08:56;4.43;;;3.70;;
19221;SDS011;9745;50.828;4.378;2022-08-19T19:11:26;6.87;;;3.80;;
19221;SDS011;9745;50.828;4.378;2022-08-19T19:13:53;7.07;;;3.27;;
19221;SDS011;9745;50.828;4.378;2022-08-19T19:16:19;4.73;;;3.33;;
19221;SDS011;9745;50.828;4.378;2022-08-19T19:18:46;5.30;;;3.50;;
19221;SDS011;9745;50.828;4.378;2022-08-19T19:21:15;6.87;;;3.60;;
19221;SDS011;9745;50.828;4.378;2022-08-19T19:23:42;3.70;;;3.03;;
19221;SDS011;9745;50.828;4.378;2022-08-19T19:26:09;5.33;;;3.10;;
19221;SDS011;9745;50.828;4.378;2022-08-19T19:28:36;6.83;;;2.93;;
19221;SDS011;9745;50.828;4.378;2022-08-19T19:31:04;6.17;;;3.10;;
19221;SDS011;9745;50.828;4.378;2022-08-19T19:33:30;3.73;;;2.93;;
19221;SDS011;9745;50.828;4.378;2022-08-19T19:35:56;9.53;;;3.23;;
19221;SDS011;9745;50.828;4.378;2022-08-19T19:38:22;6.23;;;3.00;;
19221;SDS011;9745;50.828;4.378;2022-08-19T19:40:48;5.47;;;3.00;;
19221;SDS011;9745;50.828;4.378;2022-08-19T19:43:14;5.23;;;2.80;;
19221;SDS011;9745;50.828;4.378;2022-08-19T19:45:42;4.93;;;2.63;;
19221;SDS011;9745;50.828;4.378;2022-08-19T19:48:08;4.10;;;2.97;;
19221;SDS011;9745;50.828;4.378;2022-08-19T19:50:36;5.13;;;2.90;;
19221;SDS011;9745;50.828;4.378;2022-08-19T19:53:02;4.77;;;3.23;;
19221;SDS011;9745;50.828;4.378;2022-08-19T19:55:30;7.53;;;3.70;;
19221;SDS011;9745;50.828;4.378;2022-08-19T19:57:56;5.13;;;3.30;;
19221;SDS011;9745;50.828;4.378;2022-08-19T20:00:22;7.63;;;3.00;;
19221;SDS011;9745;50.828;4.378;2022-08-19T20:02:49;3.70;;;2.27;;
19221;SDS011;9745;50.828;4.378;2022-08-19T20:05:17;4.17;;;2.50;;
19221;SDS011;9745;50.828;4.378;2022-08-19T20:07:45;3.90;;;2.20;;
19221;SDS011;9745;50.828;4.378;2022-08-19T20:10:30;5.37;;;2.50;;
19221;SDS011;9745;50.828;4.378;2022-08-19T20:12:56;5.43;;;2.33;;
19221;SDS011;9745;50.828;4.378;2022-08-19T20:15:22;6.33;;;2.57;;
19221;SDS011;9745;50.828;4.378;2022-08-19T20:17:49;5.53;;;2.50;;
19221;SDS011;9745;50.828;4.378;2022-08-19T20:20:15;4.90;;;2.10;;
19221;SDS011;9745;50.828;4.378;2022-08-19T20:22:43;3.40;;;2.33;;
19221;SDS011;9745;50.828;4.378;2022-08-19T20:25:11;3.17;;;2.30;;
19221;SDS011;9745;50.828;4.378;2022-08-19T20:27:38;2.53;;;1.70;;
19221;SDS011;9745;50.828;4.378;2022-08-19T20:30:05;3.93;;;1.90;;
19221;SDS011;9745;50.828;4.378;2022-08-19T20:32:32;2.00;;;1.50;;
19221;SDS011;9745;50.828;4.378;2022-08-19T20:34:58;3.00;;;1.30;;
19221;SDS011;9745;50.828;4.378;2022-08-19T20:37:25;3.00;;;1.20;;
19221;SDS011;9745;50.828;4.378;2022-08-19T20:39:52;2.47;;;1.20;;
19221;SDS011;9745;50.828;4.378;2022-08-19T20:42:18;2.10;;;1.30;;
19221;SDS011;9745;50.828;4.378;2022-08-19T20:44:44;2.47;;;1.53;;
19221;SDS011;9745;50.828;4.378;2022-08-19T20:47:10;3.47;;;1.83;;
19221;SDS011;9745;50.828;4.378;2022-08-19T20:49:36;3.47;;;1.97;;
19221;SDS011;9745;50.828;4.378;2022-08-19T20:52:02;2.17;;;1.90;;
19221;SDS011;9745;50.828;4.378;2022-08-19T20:54:29;5.13;;;2.30;;
19221;SDS011;9745;50.828;4.378;2022-08-19T20:56:55;4.10;;;2.30;;
19221;SDS011;9745;50.828;4.378;2022-08-19T20:59:21;3.17;;;2.50;;
19221;SDS011;9745;50.828;4.378;2022-08-19T21:01:48;6.57;;;2.30;;
19221;SDS011;9745;50.828;4.378;2022-08-19T21:04:20;6.50;;;2.50;;
19221;SDS011;9745;50.828;4.378;2022-08-19T21:06:47;6.53;;;2.70;;
19221;SDS011;9745;50.828;4.378;2022-08-19T21:09:13;3.50;;;2.57;;
19221;SDS011;9745;50.828;4.378;2022-08-19T21:11:39;3.33;;;2.20;;
19221;SDS011;9745;50.828;4.378;2022-08-19T21:14:06;4.37;;;2.80;;
19221;SDS011;9745;50.828;4.378;2022-08-19T21:16:32;4.67;;;2.50;;
19221;SDS011;9745;50.828;4.378;2022-08-19T21:18:58;5.17;;;2.53;;
19221;SDS011;9745;50.828;4.378;2022-08-19T21:21:24;4.17;;;2.93;;
19221;SDS011;9745;50.828;4.378;2022-08-19T21:23:51;5.53;;;2.60;;
19221;SDS011;9745;50.828;4.378;2022-08-19T21:26:17;6.07;;;2.57;;
19221;SDS011;9745;50.828;4.378;2022-08-19T21:28:43;5.27;;;2.67;;
19221;SDS011;9745;50.828;4.378;2022-08-19T21:31:09;6.90;;;2.73;;
19221;SDS011;9745;50.828;4.378;2022-08-19T21:33:35;5.57;;;3.00;;
19221;SDS011;9745;50.828;4.378;2022-08-19T21:36:02;5.37;;;3.17;;
19221;SDS011;9745;50.828;4.378;2022-08-19T21:38:29;3.37;;;2.20;;
19221;SDS011;9745;50.828;4.378;2022-08-19T21:40:55;7.20;;;3.00;;
19221;SDS011;9745;50.828;4.378;2022-08-19T21:43:21;4.90;;;2.57;;
19221;SDS011;9745;50.828;4.378;2022-08-19T21:45:47;6.10;;;3.17;;
19221;SDS011;9745;50.828;4.378;2022-08-19T21:48:15;4.03;;;2.47;;
19221;SDS011;9745;50.828;4.378;2022-08-19T21:50:41;6.20;;;2.93;;
19221;SDS011;9745;50.828;4.378;2022-08-19T21:53:08;3.50;;;2.70;;
19221;SDS011;9745;50.828;4.378;2022-08-19T21:55:34;4.97;;;2.73;;
19221;SDS011;9745;50.828;4.378;2022-08-19T21:58:00;6.03;;;3.50;;
19221;SDS011;9745;50.828;4.378;2022-08-19T22:00:27;6.33;;;3.27;;
19221;SDS011;9745;50.828;4.378;2022-08-19T22:02:54;5.27;;;3.20;;
19221;SDS011;9745;50.828;4.378;2022-08-19T22:05:21;5.43;;;3.10;;
19221;SDS011;9745;50.828;4.378;2022-08-19T22:07:48;5.90;;;3.53;;
19221;SDS011;9745;50.828;4.378;2022-08-19T22:10:14;4.60;;;3.17;;
19221;SDS011;9745;50.828;4.378;2022-08-19T22:12:40;5.53;;;3.90;;
19221;SDS011;9745;50.828;4.378;2022-08-19T22:15:08;6.13;;;3.50;;
19221;SDS011;9745;50.828;4.378;2022-08-19T22:17:35;6.00;;;3.23;;
19221;SDS011;9745;50.828;4.378;2022-08-19T22:20:03;7.53;;;3.10;;
19221;SDS011;9745;50.828;4.378;2022-08-19T22:22:30;7.43;;;3.93;;
19221;SDS011;9745;50.828;4.378;2022-08-19T22:25:01;7.53;;;3.90;;
19221;SDS011;9745;50.828;4.378;2022-08-19T22:27:27;7.60;;;4.60;;
19221;SDS011;9745;50.828;4.378;2022-08-19T22:29:54;12.27;;;5.40;;
19221;SDS011;9745;50.828;4.378;2022-08-19T22:32:20;10.80;;;4.90;;
19221;SDS011;9745;50.828;4.378;2022-08-19T22:34:46;5.43;;;4.17;;
19221;SDS011;9745;50.828;4.378;2022-08-19T22:37:12;7.10;;;4.10;;
19221;SDS011;9745;50.828;4.378;2022-08-19T22:39:38;6.53;;;3.50;;
19221;SDS011;9745;50.828;4.378;2022-08-19T22:42:04;6.37;;;3.63;;
19221;SDS011;9745;50.828;4.378;2022-08-19T22:44:30;5.87;;;3.63;;
19221;SDS011;9745;50.828;4.378;2022-08-19T22:46:56;6.27;;;3.67;;
19221;SDS011;9745;50.828;4.378;2022-08-19T22:49:22;6.57;;;3.90;;
19221;SDS011;9745;50.828;4.378;2022-08-19T22:51:48;8.03;;;4.37;;
19221;SDS011;9745;50.828;4.378;2022-08-19T22:54:33;7.33;;;4.30;;
19221;SDS011;9745;50.828;4.378;2022-08-19T22:56:59;5.93;;;4.10;;
19221;SDS011;9745;50.828;4.378;2022-08-19T22:59:25;8.80;;;4.07;;
19221;SDS011;9745;50.828;4.378;2022-08-19T23:01:51;8.23;;;4.17;;
19221;SDS011;9745;50.828;4.378;2022-08-19T23:04:17;7.33;;;4.43;;
19221;SDS011;9745;50.828;4.378;2022-08-19T23:06:43;5.07;;;3.93;;
19221;SDS011;9745;50.828;4.378;2022-08-19T23:09:09;5.40;;;3.83;;
19221;SDS011;9745;50.828;4.378;2022-08-19T23:11:37;9.77;;;4.60;;
19221;SDS011;9745;50.828;4.378;2022-08-19T23:14:03;6.67;;;4.20;;
19221;SDS011;9745;50.828;4.378;2022-08-19T23:16:30;7.07;;;4.23;;
19221;SDS011;9745;50.828;4.378;2022-08-19T23:18:58;8.47;;;4.60;;
19221;SDS011;9745;50.828;4.378;2022-08-19T23:21:24;9.00;;;4.03;;
19221;SDS011;9745;50.828;4.378;2022-08-19T23:23:50;8.20;;;4.47;;
19221;SDS011;9745;50.828;4.378;2022-08-19T23:26:17;9.30;;;4.40;;
19221;SDS011;9745;50.828;4.378;2022-08-19T23:28:43;4.87;;;4.07;;
19221;SDS011;9745;50.828;4.378;2022-08-19T23:31:28;7.63;;;4.67;;
19221;SDS011;9745;50.828;4.378;2022-08-19T23:33:54;8.03;;;4.27;;
19221;SDS011;9745;50.828;4.378;2022-08-19T23:36:21;7.33;;;4.13;;
19221;SDS011;9745;50.828;4.378;2022-08-19T23:38:47;9.27;;;5.20;;
19221;SDS011;9745;50.828;4.378;2022-08-19T23:41:16;8.97;;;5.00;;
19221;SDS011;9745;50.828;4.378;2022-08-19T23:43:43;6.50;;;4.90;;
19221;SDS011;9745;50.828;4.378;2022-08-19T23:46:09;6.70;;;4.33;;
19221;SDS011;9745;50.828;4.378;2022-08-19T23:48:36;9.70;;;4.97;;
19221;SDS011;9745;50.828;4.378;2022-08-19T23:51:03;8.80;;;5.00;;
19221;SDS011;9745;50.828;4.378;2022-08-19T23:53:30;6.97;;;4.87;;
19221;SDS011;9745;50.828;4.378;2022-08-19T23:55:56;8.77;;;4.87;;
19221;SDS011;9745;50.828;4.378;2022-08-19T23:58:22;9.57;;;5.20;;
